Time;durP1;ratioP1;P1;durP2;ratioP2;P2;SDS_P1;SDS_P2;PMS_P1;PMS_P2;Temp;Humidity;BMP_temperature;BMP_pressure;BME280_temperature;BME280_humidity;BME280_pressure;Samples;Min_cycle;Max_cycle;Signal;HPM_P1;HPM_P2
2022/08/14 00:01:08;;;;;;;6.40;5.67;;;17.40;79.80;;;;;;5115761;27;20186;-60
2022/08/14 00:03:34;;;;;;;6.83;5.33;;;17.30;79.90;;;;;;5102275;27;20184;-60
2022/08/14 00:06:02;;;;;;;7.00;5.77;;;17.30;80.00;;;;;;5116347;27;20290;-60
2022/08/14 00:08:28;;;;;;;10.00;6.47;;;17.30;79.90;;;;;;5099601;27;20187;-60
2022/08/14 00:10:54;;;;;;;7.73;6.00;;;17.30;79.70;;;;;;5117053;27;20184;-60
2022/08/14 00:13:23;;;;;;;7.30;5.57;;;17.30;79.90;;;;;;5099625;27;20191;-60
2022/08/14 00:15:50;;;;;;;6.00;5.37;;;17.20;80.10;;;;;;5105662;28;20206;-60
2022/08/14 00:18:21;;;;;;;10.10;6.70;;;17.10;80.30;;;;;;5088383;27;20180;-60
2022/08/14 00:20:47;;;;;;;7.67;5.53;;;17.00;80.40;;;;;;5111592;27;20198;-60
2022/08/14 00:23:14;;;;;;;6.20;5.60;;;17.00;80.50;;;;;;5100283;27;20179;-60
2022/08/14 00:25:42;;;;;;;7.93;6.37;;;16.90;80.40;;;;;;5092871;28;20204;-60
2022/08/14 00:28:10;;;;;;;6.97;6.10;;;16.90;80.70;;;;;;5107971;27;20181;-60
2022/08/14 00:30:35;;;;;;;10.20;5.50;;;16.90;80.70;;;;;;5115914;27;20233;-60
2022/08/14 00:33:01;;;;;;;10.23;6.30;;;16.80;80.80;;;;;;5097928;27;20188;-60
2022/08/14 00:35:27;;;;;;;6.20;5.60;;;16.80;80.80;;;;;;5087760;28;20198;-60
2022/08/14 00:37:53;;;;;;;6.33;5.73;;;16.80;80.80;;;;;;5103611;27;20192;-60
2022/08/14 00:40:19;;;;;;;6.13;5.57;;;16.80;81.00;;;;;;5097465;27;20190;-60
2022/08/14 00:42:46;;;;;;;6.87;6.17;;;16.70;81.10;;;;;;5081082;27;20183;-61
2022/08/14 00:45:14;;;;;;;7.47;6.13;;;16.70;81.20;;;;;;5078220;28;20192;-60
2022/08/14 00:47:41;;;;;;;6.57;5.67;;;16.60;81.30;;;;;;5103107;28;20276;-60
2022/08/14 00:50:09;;;;;;;6.23;5.53;;;16.60;81.30;;;;;;5115658;28;20176;-60
2022/08/14 00:52:35;;;;;;;7.50;6.17;;;16.60;81.40;;;;;;5115502;27;20180;-60
2022/08/14 00:55:01;;;;;;;6.87;6.07;;;16.50;81.40;;;;;;5115016;27;20223;-60
2022/08/14 00:57:29;;;;;;;11.27;6.70;;;16.50;81.40;;;;;;5097166;27;20196;-60
2022/08/14 00:59:56;;;;;;;5.73;5.13;;;16.50;81.40;;;;;;5133023;27;20211;-60
2022/08/14 01:02:26;;;;;;;8.80;6.10;;;16.40;81.60;;;;;;5097936;27;20225;-60
2022/08/14 01:04:57;;;;;;;10.07;5.90;;;16.40;81.60;;;;;;5099515;27;20214;-60
2022/08/14 01:07:25;;;;;;;6.47;5.87;;;16.30;81.60;;;;;;5101017;27;20222;-60
2022/08/14 01:09:54;;;;;;;6.83;5.83;;;16.30;81.60;;;;;;5132810;27;20201;-60
2022/08/14 01:12:21;;;;;;;9.13;6.00;;;16.30;81.50;;;;;;5119019;27;20219;-60
2022/08/14 01:14:53;;;;;;;7.80;5.90;;;16.40;81.50;;;;;;5088060;27;20196;-60
2022/08/14 01:17:23;;;;;;;6.20;5.60;;;16.30;81.60;;;;;;5083052;27;20180;-60
2022/08/14 01:22:33;;;;;;;8.13;5.90;;;16.30;81.70;;;;;;5107035;27;20245;-60
2022/08/14 01:24:59;;;;;;;6.37;5.47;;;16.30;81.70;;;;;;5094287;28;20281;-60
2022/08/14 01:27:27;;;;;;;6.43;5.83;;;16.30;81.50;;;;;;5099506;28;20188;-60
2022/08/14 01:29:55;;;;;;;7.70;6.00;;;16.20;81.40;;;;;;5087691;28;20188;-60
2022/08/14 01:32:22;;;;;;;6.20;5.70;;;16.20;81.50;;;;;;5111292;28;20176;-60
2022/08/14 01:34:52;;;;;;;7.80;6.13;;;16.20;81.70;;;;;;5115022;28;20217;-60
2022/08/14 01:37:22;;;;;;;8.40;6.07;;;16.10;81.80;;;;;;5115071;28;20241;-60
2022/08/14 01:39:48;;;;;;;6.57;5.90;;;16.10;81.90;;;;;;5133455;28;20193;-60
2022/08/14 01:42:14;;;;;;;6.20;5.60;;;16.10;81.90;;;;;;5081941;28;20196;-60
2022/08/14 01:44:40;;;;;;;7.63;6.13;;;16.00;81.80;;;;;;5097273;28;20207;-60
2022/08/14 01:47:14;;;;;;;6.57;5.83;;;16.00;81.90;;;;;;5077408;28;20180;-60
2022/08/14 01:49:40;;;;;;;7.70;6.17;;;16.00;82.00;;;;;;5109917;28;20236;-60
2022/08/14 01:52:06;;;;;;;7.57;6.10;;;16.00;82.00;;;;;;5087497;28;20187;-60
2022/08/14 01:54:33;;;;;;;9.23;6.53;;;15.90;82.10;;;;;;5108702;28;20212;-60
2022/08/14 01:56:58;;;;;;;8.47;6.30;;;15.90;82.20;;;;;;5110342;28;20188;-60
2022/08/14 01:59:32;;;;;;;11.17;6.53;;;15.90;82.30;;;;;;5094550;28;20230;-60
2022/08/14 02:02:02;;;;;;;10.10;6.53;;;15.90;82.30;;;;;;5111236;27;20175;-60
2022/08/14 02:04:34;;;;;;;8.23;6.87;;;15.90;82.20;;;;;;5118939;27;20196;-60
2022/08/14 02:07:01;;;;;;;8.00;6.50;;;15.90;82.50;;;;;;5110122;27;20183;-60
2022/08/14 02:09:33;;;;;;;10.27;6.73;;;16.00;82.20;;;;;;5133278;27;20199;-60
2022/08/14 02:12:00;;;;;;;7.90;7.10;;;15.90;82.00;;;;;;5102107;27;20232;-60
2022/08/14 02:14:26;;;;;;;11.00;7.70;;;15.90;81.90;;;;;;5111028;27;20176;-60
2022/08/14 02:16:53;;;;;;;9.53;6.80;;;15.90;81.90;;;;;;5098758;28;20190;-60
2022/08/14 02:19:22;;;;;;;9.23;6.40;;;15.90;81.80;;;;;;5097986;28;20185;-60
2022/08/14 02:21:53;;;;;;;8.70;6.80;;;15.90;81.80;;;;;;5111321;27;20187;-60
2022/08/14 02:24:20;;;;;;;7.70;6.90;;;15.80;81.90;;;;;;5115024;27;20232;-60
2022/08/14 02:26:47;;;;;;;7.97;6.47;;;15.90;82.00;;;;;;5099834;27;20199;-60
2022/08/14 02:29:16;;;;;;;7.53;6.70;;;15.80;82.00;;;;;;5114510;28;20184;-60
2022/08/14 02:31:45;;;;;;;10.00;7.27;;;15.80;81.90;;;;;;5109234;27;20180;-60
2022/08/14 02:34:17;;;;;;;8.37;5.93;;;15.80;81.90;;;;;;5109301;27;20185;-60
2022/08/14 02:36:43;;;;;;;6.80;6.13;;;15.80;81.80;;;;;;5130627;27;20192;-60
2022/08/14 02:39:10;;;;;;;9.57;6.40;;;15.80;81.80;;;;;;5099265;27;20192;-60
2022/08/14 02:41:36;;;;;;;6.83;6.13;;;15.80;81.80;;;;;;5102020;27;20274;-60
2022/08/14 02:44:04;;;;;;;8.43;5.97;;;15.80;81.80;;;;;;5118278;27;20203;-60
2022/08/14 02:46:30;;;;;;;6.40;5.73;;;15.70;81.90;;;;;;5129699;27;20282;-60
2022/08/14 02:48:56;;;;;;;9.40;6.47;;;15.70;82.00;;;;;;5109513;27;20183;-60
2022/08/14 02:51:22;;;;;;;8.33;6.70;;;15.70;82.00;;;;;;5083967;28;20761;-60
2022/08/14 02:53:49;;;;;;;8.20;6.57;;;15.60;82.10;;;;;;5130212;27;20205;-60
2022/08/14 02:56:18;;;;;;;10.93;6.33;;;15.60;82.20;;;;;;5099058;27;20207;-60
2022/08/14 02:58:46;;;;;;;7.60;6.73;;;15.50;82.20;;;;;;5100516;28;20197;-60
2022/08/14 03:01:18;;;;;;;7.90;7.13;;;15.40;82.60;;;;;;5102176;27;20196;-60
2022/08/14 03:03:47;;;;;;;9.23;6.73;;;15.40;82.70;;;;;;5097529;28;20199;-60
2022/08/14 03:06:14;;;;;;;6.93;6.23;;;15.30;82.80;;;;;;5110618;27;20199;-60
2022/08/14 03:08:41;;;;;;;8.97;7.30;;;15.40;82.70;;;;;;5098638;27;20200;-60
2022/08/14 03:11:10;;;;;;;10.00;6.40;;;15.40;82.60;;;;;;5118726;27;20190;-60
2022/08/14 03:13:41;;;;;;;7.43;6.63;;;15.40;82.60;;;;;;5112066;27;20180;-60
2022/08/14 03:16:13;;;;;;;9.67;6.97;;;15.40;82.60;;;;;;5107537;27;20446;-60
2022/08/14 03:18:41;;;;;;;9.47;6.57;;;15.40;82.40;;;;;;5107516;27;20188;-60
2022/08/14 03:21:10;;;;;;;9.47;6.73;;;15.30;82.40;;;;;;5114712;27;20187;-60
2022/08/14 03:23:36;;;;;;;8.40;7.20;;;15.40;82.50;;;;;;5107958;27;20316;-60
2022/08/14 03:26:02;;;;;;;7.17;6.13;;;15.30;82.40;;;;;;5085668;27;20254;-60
2022/08/14 03:28:29;;;;;;;8.37;6.40;;;15.30;82.40;;;;;;5088822;28;20199;-60
2022/08/14 03:30:56;;;;;;;7.77;6.63;;;15.30;82.70;;;;;;5134029;27;20187;-60
2022/08/14 03:33:22;;;;;;;7.77;6.53;;;15.30;82.60;;;;;;5116248;27;20172;-60
2022/08/14 03:35:49;;;;;;;9.63;6.43;;;15.30;82.50;;;;;;5105870;27;20191;-60
2022/08/14 03:38:16;;;;;;;8.37;6.77;;;15.30;82.70;;;;;;5101846;28;20206;-60
2022/08/14 03:40:42;;;;;;;8.10;6.43;;;15.30;82.70;;;;;;5112589;27;20207;-60
2022/08/14 03:43:09;;;;;;;8.20;6.63;;;15.30;82.40;;;;;;5082909;28;20188;-60
2022/08/14 03:45:37;;;;;;;7.47;6.73;;;15.30;82.10;;;;;;5098200;28;20204;-60
2022/08/14 03:48:18;;;;;;;8.53;6.87;;;15.30;82.40;;;;;;5110636;28;20177;-60
2022/08/14 03:50:52;;;;;;;7.77;6.50;;;15.30;82.40;;;;;;5107696;27;20185;-60
2022/08/14 03:53:18;;;;;;;7.97;6.40;;;15.30;82.40;;;;;;5117109;27;20239;-60
2022/08/14 03:55:45;;;;;;;9.20;6.83;;;15.30;82.60;;;;;;5082932;27;20194;-60
2022/08/14 03:58:11;;;;;;;7.43;6.73;;;15.30;82.50;;;;;;5115827;27;20184;-60
2022/08/14 04:00:38;;;;;;;11.93;6.80;;;15.30;82.40;;;;;;5114181;27;20681;-60
2022/08/14 04:03:09;;;;;;;8.47;6.63;;;15.30;82.60;;;;;;5101824;27;20187;-60
2022/08/14 04:05:40;;;;;;;8.90;6.20;;;15.30;82.40;;;;;;5095348;28;20215;-60
2022/08/14 04:08:08;;;;;;;7.87;6.00;;;15.40;82.20;;;;;;5114318;27;20241;-60
2022/08/14 04:10:33;;;;;;;8.57;7.10;;;15.30;82.10;;;;;;5113484;27;20187;-60
2022/08/14 04:13:04;;;;;;;7.93;6.70;;;15.30;82.10;;;;;;5110425;27;20183;-60
2022/08/14 04:15:32;;;;;;;8.77;6.23;;;15.30;82.10;;;;;;5116445;27;20278;-60
2022/08/14 04:18:05;;;;;;;7.37;6.47;;;15.30;82.20;;;;;;5134511;27;20188;-60
2022/08/14 04:20:31;;;;;;;7.60;6.80;;;15.30;82.30;;;;;;5115354;27;20191;-60
2022/08/14 04:22:56;;;;;;;7.13;5.90;;;15.30;82.40;;;;;;5094932;28;20210;-59
2022/08/14 04:25:23;;;;;;;6.90;6.30;;;15.30;82.40;;;;;;5129897;27;20304;-59
2022/08/14 04:27:48;;;;;;;9.33;6.33;;;15.30;82.50;;;;;;5077783;27;20294;-59
2022/08/14 04:30:15;;;;;;;7.13;6.23;;;15.40;82.30;;;;;;5110694;27;20259;-59
2022/08/14 04:32:41;;;;;;;8.57;5.53;;;15.40;82.20;;;;;;5097177;27;20200;-59
2022/08/14 04:35:07;;;;;;;8.30;6.73;;;15.40;82.40;;;;;;5083673;27;20223;-59
2022/08/14 04:45:44;;;;;;;7.00;6.40;;;15.40;82.60;;;;;;5103756;27;20210;-59
2022/08/14 04:48:12;;;;;;;11.47;6.40;;;15.40;82.50;;;;;;5081551;27;20176;-58
2022/08/14 04:50:51;;;;;;;6.83;6.13;;;15.40;82.30;;;;;;5114204;27;20195;-58
2022/08/14 04:53:21;;;;;;;7.00;6.30;;;15.40;82.50;;;;;;5115987;27;20186;-59
2022/08/14 04:55:48;;;;;;;7.33;6.20;;;15.40;82.80;;;;;;5134267;27;20191;-59
2022/08/14 04:58:16;;;;;;;6.80;6.10;;;15.40;82.60;;;;;;5112084;27;20191;-59
2022/08/14 05:00:43;;;;;;;7.23;5.67;;;15.40;82.60;;;;;;5097205;27;20184;-60
2022/08/14 05:03:09;;;;;;;9.00;7.17;;;15.40;82.60;;;;;;5098123;27;20261;-59
2022/08/14 05:05:35;;;;;;;7.50;6.57;;;15.40;82.70;;;;;;5113323;27;20206;-59
2022/08/14 05:08:10;;;;;;;7.57;6.80;;;15.40;82.70;;;;;;5093911;28;20182;-59
2022/08/14 05:10:41;;;;;;;7.87;6.30;;;15.40;82.90;;;;;;5099126;28;20206;-59
2022/08/14 05:13:08;;;;;;;7.00;6.30;;;15.50;82.90;;;;;;5112085;28;20191;-59
2022/08/14 05:15:36;;;;;;;6.30;5.70;;;15.50;82.90;;;;;;5109807;28;20305;-59
2022/08/14 05:18:16;;;;;;;8.00;7.20;;;15.50;83.00;;;;;;5106336;27;20200;-59
2022/08/14 05:20:45;;;;;;;6.87;6.00;;;15.50;83.20;;;;;;5102118;27;20196;-59
2022/08/14 05:23:17;;;;;;;6.67;6.10;;;15.50;83.30;;;;;;5103944;28;20207;-59
2022/08/14 05:25:44;;;;;;;6.17;5.57;;;15.60;83.40;;;;;;5106159;28;20255;-60
2022/08/14 05:28:11;;;;;;;7.70;6.00;;;15.60;83.30;;;;;;5113014;28;20214;-59
2022/08/14 05:30:38;;;;;;;7.20;6.53;;;15.60;83.40;;;;;;5109700;27;20180;-60
2022/08/14 05:33:05;;;;;;;7.50;6.70;;;15.70;83.50;;;;;;5094934;28;20181;-60
2022/08/14 05:35:31;;;;;;;8.40;6.47;;;15.70;83.50;;;;;;5094350;28;20188;-59
2022/08/14 05:38:06;;;;;;;6.90;6.20;;;15.70;83.60;;;;;;5096705;28;20192;-59
2022/08/14 05:40:33;;;;;;;7.13;6.40;;;15.80;83.60;;;;;;5115862;28;20244;-59
2022/08/14 05:42:59;;;;;;;6.90;6.20;;;15.80;83.60;;;;;;5120893;28;20180;-59
2022/08/14 05:45:25;;;;;;;7.03;6.33;;;15.80;83.70;;;;;;5121976;28;20232;-59
2022/08/14 05:47:51;;;;;;;7.00;6.27;;;15.80;83.70;;;;;;5130946;28;20176;-59
2022/08/14 05:50:17;;;;;;;9.23;6.17;;;15.90;83.60;;;;;;5092809;28;20191;-59
2022/08/14 05:52:42;;;;;;;7.40;6.63;;;16.00;83.60;;;;;;5108887;28;20188;-59
2022/08/14 05:55:09;;;;;;;7.20;6.57;;;16.00;83.50;;;;;;5114859;28;20184;-59
2022/08/14 05:58:05;;;;;;;7.17;6.43;;;16.10;83.50;;;;;;5099093;28;20275;-59
2022/08/14 06:00:37;;;;;;;6.70;6.07;;;16.10;83.30;;;;;;5085962;28;20244;-59
2022/08/14 06:03:05;;;;;;;8.13;6.27;;;16.10;83.30;;;;;;5112944;28;20175;-59
2022/08/14 06:05:31;;;;;;;7.40;6.63;;;16.20;82.80;;;;;;5108841;28;20215;-59
2022/08/14 06:07:58;;;;;;;7.83;6.53;;;16.20;82.60;;;;;;5101593;28;20180;-59
2022/08/14 06:10:25;;;;;;;6.97;6.30;;;16.20;82.30;;;;;;5112040;28;20274;-59
2022/08/14 06:12:51;;;;;;;6.80;6.20;;;16.30;82.40;;;;;;5096523;28;20196;-59
2022/08/14 06:15:17;;;;;;;6.87;6.27;;;16.30;82.40;;;;;;5097396;28;20666;-58
2022/08/14 06:17:47;;;;;;;7.60;6.27;;;16.30;82.40;;;;;;5073240;28;20276;-58
2022/08/14 06:20:14;;;;;;;7.67;6.33;;;16.40;82.40;;;;;;5108814;28;20264;-59
2022/08/14 06:22:41;;;;;;;7.13;6.43;;;16.40;82.50;;;;;;5092342;28;20203;-59
2022/08/14 06:25:08;;;;;;;10.20;7.20;;;16.40;82.50;;;;;;5112927;28;20235;-59
2022/08/14 06:27:38;;;;;;;7.83;6.63;;;16.40;82.50;;;;;;5106639;28;20188;-60
2022/08/14 06:30:09;;;;;;;8.63;6.53;;;16.50;82.50;;;;;;5128268;27;20177;-60
2022/08/14 06:32:35;;;;;;;8.23;6.43;;;16.50;82.70;;;;;;5118244;28;20182;-59
2022/08/14 06:35:06;;;;;;;9.57;7.03;;;16.60;82.50;;;;;;5114796;28;20201;-60
2022/08/14 06:37:46;;;;;;;8.33;6.90;;;16.60;82.60;;;;;;5128153;28;20269;-59
2022/08/14 06:40:13;;;;;;;11.90;6.70;;;16.60;82.60;;;;;;5115744;28;20204;-60
2022/08/14 06:42:42;;;;;;;6.90;6.07;;;16.70;82.60;;;;;;5131657;28;20194;-60
2022/08/14 06:45:08;;;;;;;11.07;5.97;;;16.70;82.30;;;;;;5097565;28;20212;-59
2022/08/14 06:47:36;;;;;;;8.80;6.67;;;16.80;81.80;;;;;;5090898;27;20192;-59
2022/08/14 06:50:07;;;;;;;9.33;6.87;;;16.80;81.80;;;;;;5115954;27;20207;-58
2022/08/14 06:52:33;;;;;;;7.27;6.60;;;16.80;81.30;;;;;;5136436;27;20180;-59
2022/08/14 06:54:58;;;;;;;6.27;5.67;;;16.90;81.20;;;;;;5095677;27;20560;-58
2022/08/14 06:57:25;;;;;;;9.63;6.73;;;17.00;81.20;;;;;;5079011;28;20280;-58
2022/08/14 06:59:50;;;;;;;11.13;7.30;;;17.10;81.40;;;;;;5110595;27;20180;-57
2022/08/14 07:07:45;;;;;;;8.23;6.60;;;17.20;80.60;;;;;;5130050;27;20199;-59
2022/08/14 07:10:11;;;;;;;7.47;6.73;;;17.20;80.70;;;;;;5101147;27;20227;-59
2022/08/14 07:12:37;;;;;;;6.57;5.97;;;17.20;80.90;;;;;;5099971;27;20264;-59
2022/08/14 07:15:05;;;;;;;6.67;5.93;;;17.30;80.90;;;;;;5080181;28;20196;-58
2022/08/14 07:17:30;;;;;;;7.07;5.90;;;17.30;80.80;;;;;;5101229;27;20192;-61
2022/08/14 07:19:56;;;;;;;7.67;6.10;;;17.30;80.70;;;;;;5092020;27;20324;-60
2022/08/14 07:22:22;;;;;;;8.27;6.40;;;17.30;80.70;;;;;;5086902;27;20193;-60
2022/08/14 07:24:47;;;;;;;7.23;6.33;;;17.40;79.70;;;;;;5100403;27;20239;-61
2022/08/14 07:27:13;;;;;;;6.57;5.93;;;17.50;79.50;;;;;;5092905;27;20185;-60
2022/08/14 07:29:39;;;;;;;8.20;6.13;;;17.60;78.60;;;;;;5094141;28;20197;-58
2022/08/14 07:32:04;;;;;;;6.67;5.93;;;17.70;78.90;;;;;;5076808;27;20195;-59
2022/08/14 07:34:30;;;;;;;6.40;5.77;;;17.70;79.00;;;;;;5100456;27;20187;-60
2022/08/14 07:36:56;;;;;;;6.27;5.67;;;17.70;78.90;;;;;;5082612;27;20211;-59
2022/08/14 07:39:21;;;;;;;6.90;6.20;;;17.80;79.00;;;;;;5090643;28;20188;-61
2022/08/14 07:41:47;;;;;;;6.70;6.10;;;17.80;79.20;;;;;;5098593;27;20188;-59
2022/08/14 07:44:13;;;;;;;7.20;5.70;;;17.90;79.20;;;;;;5081373;27;20192;-59
2022/08/14 07:46:41;;;;;;;8.30;6.40;;;18.00;79.30;;;;;;5099419;27;20269;-59
2022/08/14 07:49:08;;;;;;;7.00;6.30;;;18.10;79.40;;;;;;5083977;27;20278;-60
2022/08/14 07:51:34;;;;;;;7.53;6.70;;;18.40;77.80;;;;;;5083527;27;20184;-60
2022/08/14 07:54:00;;;;;;;8.57;6.27;;;18.40;78.00;;;;;;5083822;27;20191;-60
2022/08/14 07:56:27;;;;;;;7.73;6.77;;;18.50;77.80;;;;;;5093784;27;20193;-60
2022/08/14 07:58:52;;;;;;;6.87;6.30;;;18.70;77.00;;;;;;5080330;28;20184;-60
2022/08/14 08:01:18;;;;;;;8.30;6.83;;;18.80;77.10;;;;;;5112246;27;20196;-60
2022/08/14 08:03:46;;;;;;;7.00;6.30;;;18.80;77.00;;;;;;5096011;28;20188;-60
2022/08/14 08:06:15;;;;;;;7.10;6.13;;;18.90;77.10;;;;;;5110189;27;20207;-61
2022/08/14 08:08:42;;;;;;;8.37;6.87;;;18.90;77.00;;;;;;5099069;27;20185;-60
2022/08/14 08:11:10;;;;;;;9.13;6.60;;;19.10;76.60;;;;;;5103863;28;20208;-60
2022/08/14 08:13:41;;;;;;;7.57;6.87;;;19.30;75.30;;;;;;5115462;27;20187;-60
2022/08/14 08:16:07;;;;;;;11.23;6.37;;;19.30;76.20;;;;;;5115364;27;20191;-60
2022/08/14 08:18:34;;;;;;;7.13;6.53;;;19.40;75.80;;;;;;5095240;28;20196;-60
2022/08/14 08:21:00;;;;;;;7.20;6.50;;;19.50;76.40;;;;;;5112508;27;20187;-60
2022/08/14 08:23:28;;;;;;;6.40;5.90;;;19.50;76.00;;;;;;5094511;28;20214;-60
2022/08/14 08:25:54;;;;;;;7.90;6.23;;;19.70;75.40;;;;;;5097187;27;20230;-60
2022/08/14 08:28:26;;;;;;;7.17;6.40;;;19.80;73.70;;;;;;5098420;27;20188;-60
2022/08/14 08:30:58;;;;;;;7.07;6.37;;;19.90;73.80;;;;;;5113641;27;20204;-60
2022/08/14 08:33:29;;;;;;;7.37;6.77;;;20.00;73.60;;;;;;5111248;27;20192;-60
2022/08/14 08:36:02;;;;;;;7.50;6.57;;;20.10;73.00;;;;;;5108694;27;20184;-60
2022/08/14 08:38:28;;;;;;;7.00;6.40;;;20.20;73.30;;;;;;5075033;27;20199;-60
2022/08/14 08:40:57;;;;;;;7.00;6.37;;;20.20;73.00;;;;;;5096283;27;20193;-60
2022/08/14 08:43:33;;;;;;;7.33;6.37;;;20.30;72.80;;;;;;5092773;27;20187;-60
2022/08/14 08:46:18;;;;;;;7.77;6.97;;;20.40;73.00;;;;;;5112972;27;20222;-60
2022/08/14 08:48:51;;;;;;;6.37;5.77;;;20.30;73.90;;;;;;5115540;27;20194;-60
2022/08/14 08:51:21;;;;;;;6.97;6.27;;;20.30;73.60;;;;;;5099953;27;20181;-60
2022/08/14 08:53:57;;;;;;;6.17;5.67;;;20.30;74.30;;;;;;5115525;27;20219;-60
2022/08/14 08:56:46;;;;;;;6.57;5.97;;;20.50;72.90;;;;;;5114466;27;20242;-61
2022/08/14 08:59:18;;;;;;;7.73;6.57;;;20.50;72.60;;;;;;5097819;27;20191;-60
2022/08/14 09:01:52;;;;;;;6.17;5.67;;;20.80;70.50;;;;;;5101848;28;20180;-60
2022/08/14 09:04:21;;;;;;;7.60;6.13;;;20.80;69.70;;;;;;5107882;27;20194;-60
2022/08/14 09:06:49;;;;;;;6.20;5.70;;;21.00;69.70;;;;;;5104606;27;20345;-60
2022/08/14 09:09:25;;;;;;;6.93;6.33;;;21.00;70.30;;;;;;5114412;27;20548;-60
2022/08/14 09:11:53;;;;;;;6.50;5.93;;;21.00;70.00;;;;;;5132816;27;20179;-60
2022/08/14 09:14:23;;;;;;;5.83;5.33;;;21.20;69.10;;;;;;5098444;27;20254;-60
2022/08/14 09:16:50;;;;;;;6.50;5.30;;;21.30;68.70;;;;;;5107500;27;20267;-60
2022/08/14 09:19:16;;;;;;;5.80;5.20;;;21.40;68.60;;;;;;5086190;28;20222;-60
2022/08/14 09:21:42;;;;;;;5.73;5.13;;;21.40;66.10;;;;;;5131044;27;20280;-60
2022/08/14 09:24:09;;;;;;;5.77;5.20;;;21.50;65.60;;;;;;5093455;28;20236;-60
2022/08/14 09:26:35;;;;;;;5.60;5.03;;;21.50;67.60;;;;;;5129145;27;20237;-60
2022/08/14 09:29:02;;;;;;;5.57;5.07;;;21.50;68.70;;;;;;5113761;28;20184;-60
2022/08/14 09:31:29;;;;;;;5.80;5.33;;;21.50;69.30;;;;;;5113998;27;20196;-61
2022/08/14 09:34:06;;;;;;;6.10;5.40;;;21.60;69.70;;;;;;5114320;28;20180;-60
2022/08/14 09:36:56;;;;;;;7.43;5.73;;;21.70;70.20;;;;;;5113710;28;20212;-60
2022/08/14 09:39:49;;;;;;;6.77;5.37;;;21.80;68.90;;;;;;5126061;28;20183;-60
2022/08/14 09:42:25;;;;;;;5.67;5.17;;;21.80;67.90;;;;;;5100392;28;20188;-60
2022/08/14 09:45:14;;;;;;;6.80;5.47;;;22.00;65.00;;;;;;5127988;28;20225;-60
2022/08/14 09:47:48;;;;;;;5.90;5.27;;;22.10;64.30;;;;;;5132189;28;20183;-60
2022/08/14 09:50:22;;;;;;;6.20;5.60;;;22.20;65.50;;;;;;5113638;28;20175;-60
2022/08/14 09:52:57;;;;;;;5.57;5.07;;;22.20;67.90;;;;;;5131936;28;20251;-60
2022/08/14 09:55:24;;;;;;;5.53;5.03;;;22.10;66.10;;;;;;5113553;28;20247;-60
2022/08/14 09:57:51;;;;;;;6.43;5.90;;;22.10;66.50;;;;;;5113440;28;20183;-60
2022/08/14 10:00:18;;;;;;;6.43;5.83;;;22.10;67.30;;;;;;5112803;28;20179;-60
2022/08/14 10:02:52;;;;;;;7.17;5.60;;;22.20;67.80;;;;;;5079588;28;20191;-62
2022/08/14 10:05:29;;;;;;;6.20;5.70;;;22.20;67.10;;;;;;5103639;28;20200;-61
2022/08/14 10:07:54;;;;;;;7.53;5.80;;;22.20;65.50;;;;;;5113942;28;20302;-60
2022/08/14 10:10:36;;;;;;;6.10;5.60;;;22.20;64.00;;;;;;5098266;28;20199;-61
2022/08/14 10:13:04;;;;;;;6.40;5.80;;;22.20;65.40;;;;;;5132857;28;20180;-60
2022/08/14 10:15:32;;;;;;;6.30;5.70;;;22.20;66.60;;;;;;5106226;28;20268;-60
2022/08/14 10:18:08;;;;;;;7.40;5.63;;;22.40;64.20;;;;;;5097187;28;20192;-60
2022/08/14 10:20:43;;;;;;;6.83;5.40;;;22.50;61.80;;;;;;5099257;28;20202;-60
2022/08/14 10:23:14;;;;;;;6.50;5.90;;;23.00;61.00;;;;;;5105642;27;20186;-60
2022/08/14 10:25:49;;;;;;;6.33;5.80;;;23.20;61.30;;;;;;5090806;28;20274;-60
2022/08/14 10:28:16;;;;;;;6.20;5.53;;;23.00;60.80;;;;;;5063942;28;20253;-60
2022/08/14 10:30:46;;;;;;;6.23;5.73;;;22.90;62.60;;;;;;5091435;28;20218;-60
2022/08/14 10:33:24;;;;;;;6.10;5.57;;;22.90;62.30;;;;;;5093311;28;20221;-61
2022/08/14 10:35:50;;;;;;;5.73;5.23;;;22.90;62.70;;;;;;5090733;28;20186;-61
2022/08/14 10:38:34;;;;;;;5.97;5.47;;;22.90;64.50;;;;;;5077626;28;20200;-60
2022/08/14 10:41:12;;;;;;;5.67;5.17;;;23.20;59.30;;;;;;5107326;28;20234;-60
2022/08/14 10:43:41;;;;;;;7.90;5.80;;;23.30;61.00;;;;;;5105400;28;20293;-60
2022/08/14 10:46:16;;;;;;;5.97;5.47;;;23.30;62.50;;;;;;5072200;28;20206;-60
2022/08/14 10:49:01;;;;;;;6.50;6.00;;;23.30;61.00;;;;;;5110929;28;20181;-60
2022/08/14 10:51:28;;;;;;;5.93;5.40;;;23.30;61.10;;;;;;5090739;28;20289;-60
2022/08/14 10:53:55;;;;;;;6.67;6.07;;;23.40;60.60;;;;;;5068190;28;20185;-60
2022/08/14 10:56:34;;;;;;;5.33;4.93;;;23.40;61.60;;;;;;5092119;28;20195;-60
2022/08/14 10:59:07;;;;;;;6.50;5.47;;;23.50;58.70;;;;;;5088574;28;20177;-60
2022/08/14 11:01:35;;;;;;;6.30;5.80;;;23.50;60.70;;;;;;5092047;28;20268;-60
2022/08/14 11:04:01;;;;;;;6.17;5.57;;;23.60;59.10;;;;;;5093986;28;20189;-60
2022/08/14 11:06:27;;;;;;;5.90;5.40;;;23.60;59.30;;;;;;5075513;28;20288;-60
2022/08/14 11:08:54;;;;;;;5.57;5.07;;;23.60;58.00;;;;;;5074957;28;20209;-60
2022/08/14 11:11:21;;;;;;;6.00;5.50;;;23.70;59.10;;;;;;5076124;28;20413;-60
2022/08/14 11:13:49;;;;;;;5.87;5.37;;;23.70;60.60;;;;;;5077878;28;20184;-62
2022/08/14 11:16:15;;;;;;;6.00;5.50;;;23.70;59.70;;;;;;5090229;28;20201;-60
2022/08/14 11:18:47;;;;;;;6.13;5.53;;;23.80;61.00;;;;;;5075709;28;20218;-59
2022/08/14 11:21:15;;;;;;;5.77;5.27;;;24.00;57.20;;;;;;5093773;28;20217;-60
2022/08/14 11:23:44;;;;;;;5.80;5.27;;;24.10;58.70;;;;;;5083499;28;20319;-60
2022/08/14 11:26:11;;;;;;;6.17;5.57;;;24.20;58.10;;;;;;5106891;28;20205;-61
2022/08/14 11:28:40;;;;;;;5.47;5.07;;;24.10;58.10;;;;;;5091095;28;20242;-59
2022/08/14 11:31:12;;;;;;;6.17;5.47;;;24.10;57.40;;;;;;5110685;28;20219;-59
2022/08/14 11:33:40;;;;;;;5.47;5.07;;;24.20;55.20;;;;;;5096946;28;20237;-59
2022/08/14 11:36:08;;;;;;;6.13;5.60;;;24.20;55.70;;;;;;5110597;28;20189;-62
2022/08/14 11:38:37;;;;;;;6.00;5.50;;;24.30;57.10;;;;;;5095636;28;20215;-61
2022/08/14 11:41:04;;;;;;;5.83;5.30;;;24.50;56.40;;;;;;5113190;28;20192;-60
2022/08/14 11:43:30;;;;;;;5.63;4.87;;;24.50;55.90;;;;;;5096034;28;20283;-60
2022/08/14 11:45:56;;;;;;;5.70;5.20;;;24.60;56.30;;;;;;5094658;28;20327;-60
2022/08/14 11:48:24;;;;;;;6.30;5.70;;;24.80;52.90;;;;;;5094892;28;20199;-60
2022/08/14 11:50:53;;;;;;;5.77;5.17;;;24.80;53.60;;;;;;5113139;28;20216;-60
2022/08/14 11:53:29;;;;;;;6.07;5.20;;;24.80;55.10;;;;;;5093334;28;20201;-58
2022/08/14 11:56:01;;;;;;;5.67;5.17;;;25.10;54.20;;;;;;5111849;28;20191;-59
2022/08/14 11:58:29;;;;;;;5.90;5.40;;;25.30;56.30;;;;;;5109143;28;20184;-58
2022/08/14 12:00:59;;;;;;;6.30;5.67;;;25.70;51.70;;;;;;5111625;28;20184;-60
2022/08/14 12:03:44;;;;;;;5.40;5.00;;;25.70;53.00;;;;;;5111553;28;20291;-60
2022/08/14 12:06:16;;;;;;;5.20;4.80;;;26.20;53.30;;;;;;5110202;28;20211;-60
2022/08/14 12:08:43;;;;;;;5.33;4.83;;;26.30;51.60;;;;;;5099631;28;20194;-61
2022/08/14 12:11:14;;;;;;;5.10;4.70;;;26.60;53.20;;;;;;5095735;28;20188;-60
2022/08/14 12:13:41;;;;;;;6.00;5.10;;;26.60;52.50;;;;;;5101442;28;20238;-61
2022/08/14 12:16:11;;;;;;;7.30;5.20;;;27.20;47.00;;;;;;5112585;28;20237;-60
2022/08/14 12:18:42;;;;;;;4.77;4.37;;;27.50;45.80;;;;;;5113194;28;20206;-61
2022/08/14 12:21:18;;;;;;;4.90;4.50;;;27.70;46.30;;;;;;5108536;27;20190;-61
2022/08/14 12:23:45;;;;;;;5.20;4.70;;;27.80;46.20;;;;;;5112321;28;20223;-61
2022/08/14 12:26:19;;;;;;;5.10;4.47;;;28.20;45.30;;;;;;5106323;28;20242;-61
2022/08/14 12:28:47;;;;;;;4.30;3.97;;;28.70;46.40;;;;;;5112443;28;20188;-61
2022/08/14 12:31:18;;;;;;;5.80;4.53;;;29.00;47.10;;;;;;5074842;28;20177;-61
2022/08/14 12:33:58;;;;;;;6.77;4.57;;;29.60;43.20;;;;;;5112630;28;20271;-61
2022/08/14 12:36:29;;;;;;;4.73;4.33;;;30.00;42.20;;;;;;5111103;28;20219;-61
2022/08/14 12:38:56;;;;;;;5.40;4.90;;;30.20;40.30;;;;;;5113355;28;20278;-62
2022/08/14 12:41:25;;;;;;;4.80;4.40;;;30.20;39.20;;;;;;5112962;28;20184;-62
2022/08/14 12:44:12;;;;;;;5.77;5.20;;;30.50;42.40;;;;;;5096184;28;20280;-62
2022/08/14 12:46:42;;;;;;;4.50;3.93;;;31.00;44.30;;;;;;5108678;28;20295;-63
2022/08/14 12:49:10;;;;;;;5.43;4.50;;;31.40;40.90;;;;;;5108785;28;20183;-61
2022/08/14 12:51:36;;;;;;;4.93;4.20;;;31.70;38.60;;;;;;5111977;28;20204;-60
2022/08/14 12:54:17;;;;;;;6.83;4.17;;;31.70;39.30;;;;;;5111579;28;20283;-62
2022/08/14 12:56:44;;;;;;;4.40;4.00;;;32.00;39.00;;;;;;5105871;28;20188;-59
2022/08/14 12:59:11;;;;;;;5.63;4.50;;;32.60;38.50;;;;;;5111179;28;20279;-60
2022/08/14 13:01:38;;;;;;;4.70;4.30;;;32.90;36.20;;;;;;5093746;28;20192;-60
2022/08/14 13:04:15;;;;;;;4.63;4.33;;;33.20;36.60;;;;;;5094325;28;20252;-60
2022/08/14 13:06:46;;;;;;;4.27;3.97;;;33.40;34.60;;;;;;5075928;28;20231;-61
2022/08/14 13:09:15;;;;;;;4.43;4.03;;;33.70;35.80;;;;;;5084257;28;20188;-61
2022/08/14 13:11:48;;;;;;;5.20;4.07;;;33.90;34.60;;;;;;5108464;28;20208;-61